createdAt,value
2022-10-08T00:00:51.654Z,12.10
2022-10-08T00:04:33.945Z,12.10
2022-10-08T00:08:15.882Z,12.00
2022-10-08T00:11:57.849Z,11.90
2022-10-08T00:15:40.378Z,11.90
2022-10-08T00:19:22.183Z,11.90
2022-10-08T00:23:04.018Z,11.80
2022-10-08T00:26:46.109Z,11.80
2022-10-08T00:30:27.942Z,11.80
2022-10-08T00:34:16.347Z,11.80
2022-10-08T00:37:58.937Z,11.70
2022-10-08T00:41:41.678Z,11.70
2022-10-08T00:45:23.710Z,11.60
2022-10-08T00:49:20.326Z,11.60
2022-10-08T00:53:07.746Z,11.60
2022-10-08T00:56:52.537Z,11.50
2022-10-08T01:00:34.471Z,11.50
2022-10-08T01:04:16.574Z,11.40
2022-10-08T01:08:08.254Z,11.40
2022-10-08T01:11:58.155Z,11.40
2022-10-08T01:16:03.207Z,11.30
2022-10-08T01:19:48.995Z,11.20
2022-10-08T01:23:55.454Z,11.20
2022-10-08T01:27:43.705Z,11.20
2022-10-08T01:31:33.991Z,11.10
2022-10-08T01:35:25.700Z,11.10
2022-10-08T01:39:13.009Z,11.00
2022-10-08T01:42:59.106Z,11.00
2022-10-08T01:46:45.013Z,10.90
2022-10-08T01:50:33.534Z,10.90
2022-10-08T01:54:19.271Z,10.80
2022-10-08T01:58:04.814Z,10.80
2022-10-08T02:01:52.219Z,10.80
2022-10-08T02:05:37.633Z,10.70
2022-10-08T02:09:19.550Z,10.60
2022-10-08T02:13:01.735Z,10.50
2022-10-08T02:16:54.711Z,10.40
2022-10-08T02:20:44.725Z,10.30
2022-10-08T02:24:39.964Z,10.20
2022-10-08T02:28:37.360Z,10.10
2022-10-08T02:32:23.702Z,10.10
2022-10-08T02:36:08.450Z,10.00
2022-10-08T02:40:02.491Z,10.00
2022-10-08T02:43:47.820Z,10.00
2022-10-08T02:47:33.054Z,9.90
2022-10-08T02:51:18.709Z,9.80
2022-10-08T02:55:01.989Z,9.60
2022-10-08T02:58:44.224Z,9.50
2022-10-08T03:02:37.885Z,9.50
2022-10-08T03:06:20.111Z,9.50
2022-10-08T03:10:05.958Z,9.40
2022-10-08T03:13:50.090Z,9.30
2022-10-08T03:17:37.182Z,9.30
2022-10-08T03:21:19.238Z,9.20
2022-10-08T03:25:01.495Z,9.20
2022-10-08T03:28:43.332Z,9.20
2022-10-08T03:32:25.938Z,9.10
2022-10-08T03:36:07.842Z,9.10
2022-10-08T03:39:49.664Z,9.00
2022-10-08T03:43:33.667Z,9.00
2022-10-08T03:47:15.634Z,8.90
2022-10-08T03:51:03.324Z,8.90
2022-10-08T03:54:45.160Z,8.80
2022-10-08T03:58:26.998Z,8.80
2022-10-08T04:02:08.928Z,8.70
2022-10-08T04:05:50.989Z,8.70
2022-10-08T04:09:32.807Z,8.70
2022-10-08T04:13:15.796Z,8.60
2022-10-08T04:16:57.912Z,8.60
2022-10-08T04:20:43.417Z,8.50
2022-10-08T04:24:25.383Z,8.50
2022-10-08T04:28:07.236Z,8.50
2022-10-08T04:31:49.074Z,8.50
2022-10-08T04:35:30.915Z,8.40
2022-10-08T04:39:12.868Z,8.40
2022-10-08T04:42:54.701Z,8.40
2022-10-08T04:46:36.700Z,8.40
2022-10-08T04:50:18.587Z,8.30
2022-10-08T04:54:01.789Z,8.30
2022-10-08T04:57:43.598Z,8.20
2022-10-08T05:01:27.001Z,8.20
2022-10-08T05:05:09.231Z,8.20
2022-10-08T05:08:51.600Z,8.10
2022-10-08T05:12:33.521Z,8.10
2022-10-08T05:16:17.349Z,8.10
2022-10-08T05:19:59.207Z,8.00
2022-10-08T05:23:44.839Z,8.00
2022-10-08T05:27:26.685Z,7.90
2022-10-08T05:31:08.656Z,7.90
2022-10-08T05:34:50.489Z,7.90
2022-10-08T05:38:34.977Z,7.80
2022-10-08T05:42:17.159Z,7.80
2022-10-08T05:45:58.997Z,7.80
2022-10-08T05:49:40.804Z,7.70
2022-10-08T05:53:22.631Z,7.70
2022-10-08T05:57:04.665Z,7.60
2022-10-08T06:01:00.241Z,7.60
2022-10-08T06:04:42.149Z,7.50
2022-10-08T06:08:24.003Z,7.50
2022-10-08T06:12:06.828Z,7.50
2022-10-08T06:16:07.175Z,7.40
2022-10-08T06:19:49.055Z,7.40
2022-10-08T06:23:31.015Z,7.30
2022-10-08T06:27:12.843Z,7.30
2022-10-08T06:30:54.688Z,7.30
2022-10-08T06:34:36.575Z,7.30
2022-10-08T06:38:18.928Z,7.30
2022-10-08T06:42:00.737Z,7.30
2022-10-08T06:45:44.310Z,7.30
2022-10-08T06:49:26.801Z,7.30
2022-10-08T06:53:10.092Z,7.30
2022-10-08T06:56:51.904Z,7.30
2022-10-08T07:00:33.797Z,7.30
2022-10-08T07:04:15.649Z,7.30
2022-10-08T07:07:57.493Z,7.30
2022-10-08T07:11:39.622Z,7.40
2022-10-08T07:15:21.481Z,7.40
2022-10-08T07:19:03.496Z,7.40
2022-10-08T07:22:45.665Z,7.40
2022-10-08T07:26:32.391Z,7.50
2022-10-08T07:30:14.414Z,7.50
2022-10-08T07:33:57.471Z,7.50
2022-10-08T07:37:42.763Z,7.60
2022-10-08T07:41:25.741Z,7.60
2022-10-08T07:45:08.170Z,7.70
2022-10-08T07:48:50.944Z,7.80
2022-10-08T07:52:32.748Z,7.90
2022-10-08T07:56:17.190Z,7.90
2022-10-08T07:59:59.057Z,8.00
2022-10-08T08:03:40.961Z,8.10
2022-10-08T08:07:22.790Z,8.20
2022-10-08T08:11:06.736Z,8.20
2022-10-08T08:14:48.563Z,8.30
2022-10-08T08:18:32.343Z,8.40
2022-10-08T08:22:14.151Z,8.50
2022-10-08T08:25:55.927Z,8.60
2022-10-08T08:29:37.758Z,9.00
2022-10-08T08:33:19.565Z,9.50
2022-10-08T08:37:01.404Z,9.90
2022-10-08T08:40:43.186Z,10.40
2022-10-08T08:44:46.700Z,10.80
2022-10-08T08:48:33.078Z,11.00
2022-10-08T08:52:21.921Z,11.20
2022-10-08T08:56:06.397Z,11.30
2022-10-08T08:59:50.139Z,11.50
2022-10-08T09:03:41.143Z,11.80
2022-10-08T09:07:26.943Z,12.10
2022-10-08T09:11:16.491Z,12.30
2022-10-08T09:15:01.043Z,12.50
2022-10-08T09:18:49.715Z,12.70
2022-10-08T09:22:37.169Z,12.90
2022-10-08T09:26:37.977Z,13.00
2022-10-08T09:30:41.465Z,13.20
2022-10-08T09:34:23.769Z,13.40
2022-10-08T09:38:06.229Z,13.70
2022-10-08T09:42:07.232Z,14.10
2022-10-08T09:45:50.132Z,14.50
2022-10-08T09:49:34.382Z,14.90
2022-10-08T09:53:16.598Z,15.80
2022-10-08T09:57:00.272Z,16.90
2022-10-08T10:00:42.115Z,18.10
2022-10-08T10:04:31.102Z,19.30
2022-10-08T10:08:41.085Z,20.40
2022-10-08T10:12:26.125Z,21.50
2022-10-08T10:16:25.750Z,22.40
2022-10-08T10:20:19.483Z,23.20
2022-10-08T10:24:12.177Z,23.80
2022-10-08T10:28:00.041Z,24.50
2022-10-08T10:31:52.620Z,25.20
2022-10-08T10:35:40.691Z,25.90
2022-10-08T10:39:32.196Z,26.40
2022-10-08T10:43:31.151Z,27.00
2022-10-08T10:47:14.494Z,27.60
2022-10-08T10:51:25.363Z,28.10
2022-10-08T10:55:07.109Z,28.40
2022-10-08T10:59:02.943Z,28.70
2022-10-08T11:02:59.572Z,28.70
2022-10-08T11:06:53.249Z,27.90
2022-10-08T11:11:05.502Z,27.20
2022-10-08T11:15:22.505Z,26.50
2022-10-08T11:19:11.153Z,25.80
2022-10-08T11:23:14.960Z,26.00
2022-10-08T11:27:24.715Z,26.00
2022-10-08T11:31:13.616Z,26.00
2022-10-08T11:35:34.690Z,26.50
2022-10-08T11:39:21.156Z,27.40
2022-10-08T11:43:06.088Z,28.30
2022-10-08T11:46:48.048Z,28.60
2022-10-08T11:50:36.117Z,29.20
2022-10-08T11:54:38.300Z,29.30
2022-10-08T11:58:28.425Z,29.00
2022-10-08T12:02:33.039Z,28.40
2022-10-08T12:06:15.171Z,28.80
2022-10-08T12:10:23.146Z,29.30
2022-10-08T12:14:17.200Z,28.90
2022-10-08T12:18:26.031Z,29.30
2022-10-08T12:22:25.258Z,29.90
2022-10-08T12:26:09.116Z,30.70
2022-10-08T12:30:16.425Z,31.50
2022-10-08T12:34:17.098Z,31.60
2022-10-08T12:38:13.676Z,31.60
2022-10-08T12:42:13.806Z,31.00
2022-10-08T12:46:11.874Z,30.30
2022-10-08T12:49:59.555Z,29.70
2022-10-08T12:53:48.187Z,29.80
2022-10-08T12:57:39.361Z,30.60
2022-10-08T13:01:21.986Z,31.40
2022-10-08T13:05:25.783Z,32.10
2022-10-08T13:09:25.484Z,32.70
2022-10-08T13:13:32.811Z,32.60
2022-10-08T13:17:31.680Z,31.70
2022-10-08T13:21:36.769Z,31.50
2022-10-08T13:25:37.623Z,30.40
2022-10-08T13:29:22.610Z,29.20
2022-10-08T13:33:11.459Z,29.40
2022-10-08T13:36:56.453Z,30.10
2022-10-08T13:40:38.362Z,31.00
2022-10-08T13:44:20.466Z,31.70
2022-10-08T13:48:02.440Z,32.40
2022-10-08T13:51:44.271Z,33.00
2022-10-08T13:55:32.442Z,33.40
2022-10-08T13:59:14.384Z,33.40
2022-10-08T14:02:56.338Z,33.30
2022-10-08T14:06:39.283Z,33.20
2022-10-08T14:10:22.158Z,33.40
2022-10-08T14:14:04.066Z,33.70
2022-10-08T14:17:46.462Z,33.90
2022-10-08T14:21:28.492Z,34.00
2022-10-08T14:25:15.189Z,33.60
2022-10-08T14:28:58.568Z,33.40
2022-10-08T14:32:40.523Z,33.10
2022-10-08T14:36:27.810Z,33.00
2022-10-08T14:40:18.811Z,32.80
2022-10-08T14:44:00.864Z,32.70
2022-10-08T14:47:42.738Z,32.70
2022-10-08T14:51:24.609Z,32.70
2022-10-08T14:55:07.021Z,32.60
2022-10-08T14:58:52.123Z,32.40
2022-10-08T15:02:37.812Z,32.40
2022-10-08T15:06:19.651Z,32.20
2022-10-08T15:10:01.563Z,32.20
2022-10-08T15:13:43.396Z,32.00
2022-10-08T15:17:25.328Z,31.50
2022-10-08T15:21:07.463Z,30.70
2022-10-08T15:24:49.353Z,29.70
2022-10-08T15:28:32.015Z,28.80
2022-10-08T15:32:15.934Z,28.20
2022-10-08T15:35:57.943Z,28.00
2022-10-08T15:39:39.830Z,27.90
2022-10-08T15:43:29.046Z,27.90
2022-10-08T15:47:12.170Z,27.90
2022-10-08T15:51:00.519Z,27.50
2022-10-08T15:54:42.945Z,26.80
2022-10-08T15:58:48.890Z,26.20
2022-10-08T16:02:26.739Z,25.70
2022-10-08T16:06:10.970Z,25.20
2022-10-08T16:09:52.828Z,24.70
2022-10-08T16:13:37.236Z,24.30
2022-10-08T16:17:44.020Z,23.70
2022-10-08T16:21:27.344Z,23.30
2022-10-08T16:25:09.447Z,22.80
2022-10-08T16:28:56.997Z,22.50
2022-10-08T16:32:38.865Z,22.20
2022-10-08T16:36:20.807Z,22.00
2022-10-08T16:40:04.023Z,21.80
2022-10-08T16:43:49.313Z,21.70
2022-10-08T16:47:32.288Z,21.50
2022-10-08T16:51:14.383Z,21.30
2022-10-08T16:54:56.309Z,21.10
2022-10-08T16:58:39.185Z,21.00
2022-10-08T17:02:25.679Z,20.80
2022-10-08T17:06:09.967Z,20.60
2022-10-08T17:09:53.051Z,20.40
2022-10-08T17:13:35.000Z,20.20
2022-10-08T17:17:16.866Z,20.00
2022-10-08T17:21:00.050Z,19.90
2022-10-08T17:24:42.514Z,19.80
2022-10-08T17:28:33.279Z,19.60
2022-10-08T17:32:15.130Z,19.40
2022-10-08T17:36:24.663Z,19.20
2022-10-08T17:40:08.439Z,19.00
2022-10-08T17:43:50.939Z,18.90
2022-10-08T17:47:32.754Z,18.70
2022-10-08T17:51:16.931Z,18.60
2022-10-08T17:54:58.748Z,18.50
2022-10-08T17:58:40.645Z,18.30
2022-10-08T18:02:23.335Z,18.20
2022-10-08T18:06:06.478Z,18.00
2022-10-08T18:09:50.011Z,17.90
2022-10-08T18:13:32.167Z,17.70
2022-10-08T18:17:13.976Z,17.60
2022-10-08T18:20:58.854Z,17.50
2022-10-08T18:24:40.692Z,17.30
2022-10-08T18:28:22.578Z,17.20
2022-10-08T18:32:04.472Z,17.10
2022-10-08T18:35:46.280Z,16.90
2022-10-08T18:39:28.779Z,16.80
2022-10-08T18:43:10.723Z,16.70
2022-10-08T18:46:52.581Z,16.60
2022-10-08T18:50:34.391Z,16.40
2022-10-08T18:54:16.485Z,16.30
2022-10-08T18:57:58.291Z,16.20
2022-10-08T19:01:41.631Z,16.10
2022-10-08T19:05:23.541Z,16.00
2022-10-08T19:09:06.462Z,15.80
2022-10-08T19:12:48.622Z,15.70
2022-10-08T19:16:31.247Z,15.50
2022-10-08T19:20:13.145Z,15.40
2022-10-08T19:23:57.642Z,15.20
2022-10-08T19:27:40.683Z,15.10
2022-10-08T19:31:33.848Z,15.00
2022-10-08T19:35:15.795Z,14.90
2022-10-08T19:39:06.721Z,14.90
2022-10-08T19:42:48.853Z,14.80
2022-10-08T19:46:32.179Z,14.70
2022-10-08T19:50:14.094Z,14.70
2022-10-08T19:53:56.112Z,14.60
2022-10-08T19:57:37.919Z,14.60
2022-10-08T20:01:22.150Z,14.40
2022-10-08T20:05:04.292Z,14.40
2022-10-08T20:08:46.276Z,14.30
2022-10-08T20:12:28.253Z,14.20
2022-10-08T20:16:13.236Z,14.20
2022-10-08T20:20:05.303Z,14.10
2022-10-08T20:23:57.416Z,14.00
2022-10-08T20:27:39.342Z,13.90
2022-10-08T20:31:24.358Z,13.90
2022-10-08T20:35:07.032Z,13.80
2022-10-08T20:38:48.952Z,13.60
2022-10-08T20:42:32.274Z,13.60
2022-10-08T20:46:15.538Z,13.50
2022-10-08T20:49:57.530Z,13.40
2022-10-08T20:53:39.917Z,13.30
2022-10-08T20:57:21.735Z,13.20
2022-10-08T21:01:16.414Z,13.10
2022-10-08T21:04:58.365Z,13.10
2022-10-08T21:08:42.208Z,13.00
2022-10-08T21:12:24.043Z,12.90
2022-10-08T21:16:12.913Z,12.80
2022-10-08T21:19:54.916Z,12.70
2022-10-08T21:23:37.362Z,12.70
2022-10-08T21:27:19.211Z,12.60
2022-10-08T21:31:04.100Z,12.50
2022-10-08T21:34:46.423Z,12.40
2022-10-08T21:38:28.471Z,12.30
2022-10-08T21:42:10.397Z,12.20
2022-10-08T21:45:56.958Z,12.10
2022-10-08T21:49:38.851Z,12.00
2022-10-08T21:53:20.651Z,11.90
2022-10-08T21:57:02.514Z,11.80
2022-10-08T22:00:44.446Z,11.80
2022-10-08T22:04:26.452Z,11.70
2022-10-08T22:08:08.246Z,11.60
2022-10-08T22:11:51.832Z,11.60
2022-10-08T22:15:33.656Z,11.50
2022-10-08T22:19:15.721Z,11.50
2022-10-08T22:22:57.757Z,11.40
2022-10-08T22:26:42.668Z,11.30
2022-10-08T22:30:25.146Z,11.20
2022-10-08T22:34:09.600Z,11.20
2022-10-08T22:37:51.406Z,11.10
2022-10-08T22:45:13.675Z,10.90
2022-10-08T22:49:00.213Z,10.80
2022-10-08T22:52:42.065Z,10.70
2022-10-08T22:56:27.219Z,10.70
2022-10-08T23:00:10.392Z,10.60
2022-10-08T23:03:53.254Z,10.50
2022-10-08T23:07:35.086Z,10.40
2022-10-08T23:11:16.971Z,10.30
2022-10-08T23:14:58.807Z,10.30
2022-10-08T23:18:43.554Z,10.20
2022-10-08T23:22:25.463Z,10.20
2022-10-08T23:26:08.384Z,10.10
2022-10-08T23:29:50.245Z,10.00
2022-10-08T23:33:32.434Z,10.00
2022-10-08T23:37:14.276Z,9.90
2022-10-08T23:41:00.098Z,9.90
2022-10-08T23:44:42.013Z,9.80
2022-10-08T23:48:23.934Z,9.70
2022-10-08T23:52:05.990Z,9.70
2022-10-08T23:55:48.029Z,9.60
2022-10-08T23:59:29.922Z,9.50
